N152SG CYHZ-CYHZ
Flight info
| Callsign | N152SG |
|---|---|
| Flight time | 0h 10m |
| Altitude | 5000 |
| Route | YHZ |
| Aircraft | C172/L-SFG/C |
Departure
| Time | 2026-04-28 01:05 |
|---|---|
| Airport | Halifax / Stanfield International Airport (CYHZ) |
Arrival
| Time | 2026-04-28 01:15 |
|---|---|
| Airport | Halifax / Stanfield International Airport (CYHZ) |
| Time | Latitude | Longitude | Altitude | Speed | Heading |
|---|---|---|---|---|---|
| 2026-04-28 00:47 | 44.87584 | -63.52177 | 454 ft | 0 kts | 194° |
| 2026-04-28 00:53 | 44.87585 | -63.52177 | 454 ft | 0 kts | 194° |
| 2026-04-28 00:54 | 44.87581 | -63.52178 | 454 ft | 3 kts | 194° |
| 2026-04-28 00:54 | 44.87547 | -63.52171 | 454 ft | 6 kts | 159° |
| 2026-04-28 00:54 | 44.87524 | -63.52114 | 454 ft | 8 kts | 82° |
| 2026-04-28 00:54 | 44.87567 | -63.52066 | 454 ft | 10 kts | 34° |
| 2026-04-28 00:55 | 44.87632 | -63.52003 | 454 ft | 13 kts | 36° |
| 2026-04-28 00:55 | 44.87711 | -63.51925 | 454 ft | 15 kts | 36° |
| 2026-04-28 00:55 | 44.87794 | -63.51842 | 454 ft | 15 kts | 33° |
| 2026-04-28 00:55 | 44.87877 | -63.51759 | 453 ft | 14 kts | 35° |
| 2026-04-28 00:56 | 44.87932 | -63.51705 | 453 ft | 8 kts | 41° |
| 2026-04-28 00:56 | 44.87975 | -63.51662 | 453 ft | 0 kts | 38° |
| 2026-04-28 00:57 | 44.87977 | -63.51660 | 453 ft | 3 kts | 37° |
| 2026-04-28 00:58 | 44.88045 | -63.51593 | 453 ft | 16 kts | 34° |
| 2026-04-28 00:58 | 44.88141 | -63.51497 | 453 ft | 16 kts | 34° |
| 2026-04-28 00:58 | 44.88227 | -63.51414 | 452 ft | 14 kts | 35° |
| 2026-04-28 00:58 | 44.88309 | -63.51335 | 452 ft | 14 kts | 35° |
| 2026-04-28 00:59 | 44.88383 | -63.51253 | 452 ft | 13 kts | 41° |
| 2026-04-28 00:59 | 44.88457 | -63.51206 | 452 ft | 10 kts | 349° |
| 2026-04-28 00:59 | 44.88531 | -63.51224 | 452 ft | 12 kts | 349° |
| 2026-04-28 00:59 | 44.88615 | -63.51244 | 451 ft | 13 kts | 350° |
| 2026-04-28 01:00 | 44.88706 | -63.51267 | 451 ft | 14 kts | 349° |
| 2026-04-28 01:00 | 44.88804 | -63.51291 | 451 ft | 15 kts | 350° |
| 2026-04-28 01:00 | 44.88906 | -63.51315 | 451 ft | 15 kts | 351° |
| 2026-04-28 01:00 | 44.88983 | -63.51312 | 451 ft | 7 kts | 36° |
| 2026-04-28 01:01 | 44.89021 | -63.51273 | 451 ft | 0 kts | 36° |
| 2026-04-28 01:02 | 44.89021 | -63.51274 | 451 ft | 0 kts | 36° |
| 2026-04-28 01:03 | 44.89038 | -63.51256 | 451 ft | 8 kts | 36° |
| 2026-04-28 01:03 | 44.89088 | -63.51180 | 450 ft | 11 kts | 94° |
| 2026-04-28 01:04 | 44.88965 | -63.50928 | 450 ft | 56 kts | 125° |
| 2026-04-28 01:04 | 44.88722 | -63.50443 | 628 ft | 61 kts | 128° |
| 2026-04-28 01:04 | 44.88466 | -63.49955 | 808 ft | 63 kts | 129° |
| 2026-04-28 01:04 | 44.88320 | -63.49377 | 998 ft | 66 kts | 95° |
| 2026-04-28 01:05 | 44.88438 | -63.48743 | 1200 ft | 68 kts | 69° |
| 2026-04-28 01:05 | 44.88764 | -63.48253 | 1416 ft | 72 kts | 49° |
| 2026-04-28 01:05 | 44.89193 | -63.47851 | 1610 ft | 77 kts | 28° |
| 2026-04-28 01:05 | 44.89762 | -63.47910 | 1718 ft | 91 kts | 334° |
| 2026-04-28 01:06 | 44.90189 | -63.48556 | 1841 ft | 93 kts | 304° |
| 2026-04-28 01:06 | 44.90574 | -63.49321 | 1930 ft | 98 kts | 302° |
| 2026-04-28 01:06 | 44.90956 | -63.50122 | 2025 ft | 99 kts | 301° |
| 2026-04-28 01:06 | 44.91344 | -63.50943 | 2080 ft | 102 kts | 302° |
| 2026-04-28 01:07 | 44.91744 | -63.51787 | 2106 ft | 104 kts | 301° |
| 2026-04-28 01:07 | 44.92149 | -63.52621 | 2176 ft | 102 kts | 303° |
| 2026-04-28 01:07 | 44.92567 | -63.53444 | 2216 ft | 104 kts | 305° |
| 2026-04-28 01:07 | 44.92863 | -63.53994 | 2247 ft | 104 kts | 307° |
| 2026-04-28 01:08 | 44.93459 | -63.55065 | 2291 ft | 105 kts | 308° |
| 2026-04-28 01:08 | 44.93912 | -63.55873 | 2337 ft | 104 kts | 308° |
| 2026-04-28 01:08 | 44.94364 | -63.56671 | 2404 ft | 103 kts | 309° |
| 2026-04-28 01:08 | 44.94822 | -63.57457 | 2458 ft | 103 kts | 310° |
| 2026-04-28 01:09 | 44.95271 | -63.58243 | 2509 ft | 103 kts | 306° |
| 2026-04-28 01:09 | 44.95514 | -63.59152 | 2608 ft | 97 kts | 268° |
| 2026-04-28 01:09 | 44.95278 | -63.59983 | 2715 ft | 91 kts | 223° |
| 2026-04-28 01:09 | 44.94819 | -63.60623 | 2751 ft | 95 kts | 216° |
| 2026-04-28 01:10 | 44.94300 | -63.61177 | 2796 ft | 85 kts | 196° |
| 2026-04-28 01:10 | 44.93787 | -63.61095 | 2775 ft | 75 kts | 138° |
| 2026-04-28 01:10 | 44.93499 | -63.60479 | 2670 ft | 77 kts | 116° |
| 2026-04-28 01:10 | 44.93276 | -63.59818 | 2580 ft | 67 kts | 116° |
| 2026-04-28 01:11 | 44.93073 | -63.59252 | 2465 ft | 63 kts | 117° |
| 2026-04-28 01:11 | 44.92871 | -63.58721 | 2272 ft | 60 kts | 122° |
| 2026-04-28 01:11 | 44.92646 | -63.58237 | 2092 ft | 58 kts | 127° |
| 2026-04-28 01:11 | 44.92412 | -63.57788 | 1923 ft | 56 kts | 128° |
| 2026-04-28 01:12 | 44.92191 | -63.57335 | 1760 ft | 56 kts | 126° |
| 2026-04-28 01:12 | 44.91977 | -63.56887 | 1606 ft | 55 kts | 127° |
| 2026-04-28 01:12 | 44.91750 | -63.56453 | 1461 ft | 55 kts | 127° |
| 2026-04-28 01:12 | 44.91535 | -63.56007 | 1306 ft | 55 kts | 125° |
| 2026-04-28 01:13 | 44.91312 | -63.55555 | 1149 ft | 56 kts | 126° |
| 2026-04-28 01:13 | 44.90854 | -63.54681 | 989 ft | 56 kts | 127° |
| 2026-04-28 01:13 | 44.90628 | -63.54225 | 944 ft | 57 kts | 127° |
| 2026-04-28 01:14 | 44.90395 | -63.53764 | 893 ft | 59 kts | 127° |
| 2026-04-28 01:14 | 44.90157 | -63.53282 | 804 ft | 60 kts | 127° |
| 2026-04-28 01:14 | 44.89916 | -63.52800 | 676 ft | 60 kts | 127° |
| 2026-04-28 01:14 | 44.89671 | -63.52328 | 582 ft | 59 kts | 127° |
| 2026-04-28 01:15 | 44.89434 | -63.51856 | 503 ft | 59 kts | 128° |
| 2026-04-28 01:15 | 44.89205 | -63.51403 | 459 ft | 50 kts | 128° |
| 2026-04-28 01:15 | 44.89096 | -63.51189 | 450 ft | 32 kts | 127° |
| 2026-04-28 01:15 | 44.88922 | -63.50841 | 461 ft | 62 kts | 127° |
| 2026-04-28 01:16 | 44.88664 | -63.50315 | 595 ft | 70 kts | 127° |
| 2026-04-28 01:16 | 44.88525 | -63.49652 | 732 ft | 78 kts | 78° |
| 2026-04-28 01:16 | 44.88954 | -63.49119 | 832 ft | 89 kts | 34° |
| 2026-04-28 01:16 | 44.89490 | -63.48719 | 999 ft | 86 kts | 31° |
| 2026-04-28 01:17 | 44.90071 | -63.48536 | 1172 ft | 90 kts | 354° |
| 2026-04-28 01:17 | 44.90585 | -63.49052 | 1275 ft | 96 kts | 306° |
| 2026-04-28 01:17 | 44.90978 | -63.49848 | 1323 ft | 101 kts | 303° |
| 2026-04-28 01:17 | 44.91362 | -63.50692 | 1368 ft | 103 kts | 300° |
| 2026-04-28 01:18 | 44.91722 | -63.51559 | 1427 ft | 102 kts | 298° |
| 2026-04-28 01:18 | 44.91936 | -63.52473 | 1409 ft | 96 kts | 262° |
| 2026-04-28 01:18 | 44.91706 | -63.53098 | 1336 ft | 66 kts | 213° |
| 2026-04-28 01:18 | 44.91352 | -63.53520 | 1290 ft | 65 kts | 210° |
| 2026-04-28 01:19 | 44.90972 | -63.53790 | 1253 ft | 60 kts | 174° |
| 2026-04-28 01:19 | 44.90600 | -63.53595 | 1102 ft | 52 kts | 153° |
| 2026-04-28 01:19 | 44.90266 | -63.53327 | 898 ft | 59 kts | 145° |
| 2026-04-28 01:19 | 44.89987 | -63.52934 | 748 ft | 56 kts | 128° |
| 2026-04-28 01:20 | 44.89758 | -63.52506 | 635 ft | 54 kts | 130° |
| 2026-04-28 01:20 | 44.89537 | -63.52053 | 545 ft | 58 kts | 128° |
| 2026-04-28 01:20 | 44.89317 | -63.51625 | 465 ft | 42 kts | 129° |
| 2026-04-28 01:20 | 44.89175 | -63.51347 | 450 ft | 47 kts | 124° |
| 2026-04-28 01:21 | 44.88942 | -63.50881 | 563 ft | 62 kts | 128° |
| 2026-04-28 01:21 | 44.88696 | -63.50358 | 714 ft | 65 kts | 122° |
| 2026-04-28 01:21 | 44.88709 | -63.49742 | 900 ft | 71 kts | 61° |
| 2026-04-28 01:21 | 44.89156 | -63.49334 | 1012 ft | 83 kts | 33° |
| 2026-04-28 01:22 | 44.89690 | -63.48978 | 1132 ft | 85 kts | 29° |
| 2026-04-28 01:22 | 44.90254 | -63.48763 | 1291 ft | 87 kts | 3° |
| 2026-04-28 01:22 | 44.90809 | -63.49147 | 1383 ft | 94 kts | 310° |
| 2026-04-28 01:22 | 44.91195 | -63.49892 | 1476 ft | 96 kts | 303° |
| 2026-04-28 01:23 | 44.91567 | -63.50691 | 1546 ft | 98 kts | 300° |
| 2026-04-28 01:23 | 44.91933 | -63.51508 | 1621 ft | 99 kts | 300° |
| 2026-04-28 01:23 | 44.92287 | -63.52336 | 1685 ft | 99 kts | 298° |
| 2026-04-28 01:23 | 44.92641 | -63.53153 | 1774 ft | 97 kts | 299° |
| 2026-04-28 01:24 | 44.93005 | -63.53955 | 1847 ft | 97 kts | 299° |
| 2026-04-28 01:24 | 44.93366 | -63.54763 | 1905 ft | 97 kts | 298° |
| 2026-04-28 01:24 | 44.93709 | -63.55585 | 1966 ft | 97 kts | 287° |
| 2026-04-28 01:24 | 44.93693 | -63.56483 | 1993 ft | 91 kts | 238° |
| 2026-04-28 01:25 | 44.93338 | -63.57211 | 2017 ft | 89 kts | 225° |
| 2026-04-28 01:25 | 44.92935 | -63.57852 | 2075 ft | 85 kts | 211° |
| 2026-04-28 01:25 | 44.92404 | -63.58109 | 2094 ft | 80 kts | 171° |
| 2026-04-28 01:25 | 44.91954 | -63.57721 | 2089 ft | 81 kts | 122° |
| 2026-04-28 01:26 | 44.91784 | -63.56971 | 1836 ft | 63 kts | 108° |
| 2026-04-28 01:26 | 44.91680 | -63.56433 | 1603 ft | 57 kts | 116° |
| 2026-04-28 01:26 | 44.91506 | -63.55939 | 1401 ft | 56 kts | 125° |
| 2026-04-28 01:26 | 44.91293 | -63.55483 | 1208 ft | 53 kts | 130° |
| 2026-04-28 01:27 | 44.91062 | -63.55092 | 1081 ft | 52 kts | 129° |
| 2026-04-28 01:27 | 44.90839 | -63.54648 | 990 ft | 56 kts | 128° |
| 2026-04-28 01:27 | 44.90615 | -63.54191 | 926 ft | 57 kts | 126° |
| 2026-04-28 01:27 | 44.90388 | -63.53738 | 854 ft | 58 kts | 126° |
| 2026-04-28 01:28 | 44.90150 | -63.53265 | 775 ft | 59 kts | 129° |
| 2026-04-28 01:28 | 44.89911 | -63.52804 | 684 ft | 59 kts | 126° |
| 2026-04-28 01:28 | 44.89677 | -63.52338 | 600 ft | 59 kts | 127° |
| 2026-04-28 01:28 | 44.89437 | -63.51864 | 514 ft | 59 kts | 128° |
| 2026-04-28 01:29 | 44.89232 | -63.51461 | 455 ft | 37 kts | 123° |
| 2026-04-28 01:29 | 44.89061 | -63.51120 | 457 ft | 59 kts | 125° |
| 2026-04-28 01:29 | 44.88808 | -63.50614 | 626 ft | 65 kts | 127° |
| 2026-04-28 01:29 | 44.88554 | -63.50065 | 775 ft | 70 kts | 124° |
| 2026-04-28 01:30 | 44.88384 | -63.49415 | 931 ft | 74 kts | 94° |
| 2026-04-28 01:30 | 44.88626 | -63.48757 | 1094 ft | 81 kts | 49° |
| 2026-04-28 01:30 | 44.89144 | -63.48326 | 1195 ft | 90 kts | 32° |
| 2026-04-28 01:30 | 44.89724 | -63.48000 | 1360 ft | 90 kts | 17° |
| 2026-04-28 01:31 | 44.90358 | -63.48201 | 1433 ft | 101 kts | 327° |
| 2026-04-28 01:31 | 44.90801 | -63.48968 | 1498 ft | 102 kts | 300° |
| 2026-04-28 01:31 | 44.91185 | -63.49841 | 1490 ft | 105 kts | 299° |
| 2026-04-28 01:31 | 44.91583 | -63.50688 | 1470 ft | 103 kts | 301° |
| 2026-04-28 01:32 | 44.91967 | -63.51540 | 1452 ft | 102 kts | 301° |
| 2026-04-28 01:32 | 44.92349 | -63.52389 | 1408 ft | 103 kts | 298° |
| 2026-04-28 01:32 | 44.92714 | -63.53257 | 1377 ft | 102 kts | 298° |
| 2026-04-28 01:32 | 44.93086 | -63.54099 | 1404 ft | 100 kts | 302° |
| 2026-04-28 01:33 | 44.93482 | -63.54923 | 1365 ft | 103 kts | 301° |
| 2026-04-28 01:33 | 44.93873 | -63.55760 | 1366 ft | 100 kts | 294° |
| 2026-04-28 01:33 | 44.94007 | -63.56692 | 1365 ft | 96 kts | 257° |
| 2026-04-28 01:33 | 44.93757 | -63.57507 | 1386 ft | 88 kts | 223° |
| 2026-04-28 01:34 | 44.93323 | -63.58108 | 1369 ft | 90 kts | 215° |
| 2026-04-28 01:34 | 44.92807 | -63.58528 | 1355 ft | 83 kts | 185° |
| 2026-04-28 01:34 | 44.92285 | -63.58298 | 1311 ft | 82 kts | 136° |
| 2026-04-28 01:34 | 44.92058 | -63.57560 | 1235 ft | 87 kts | 107° |
| 2026-04-28 01:35 | 44.91912 | -63.56886 | 1298 ft | 57 kts | 118° |
| 2026-04-28 01:35 | 44.91722 | -63.56397 | 1223 ft | 58 kts | 125° |
| 2026-04-28 01:35 | 44.91489 | -63.55919 | 1165 ft | 60 kts | 129° |
| 2026-04-28 01:35 | 44.91244 | -63.55438 | 1101 ft | 61 kts | 129° |
| 2026-04-28 01:36 | 44.90997 | -63.54952 | 1040 ft | 61 kts | 128° |
| 2026-04-28 01:36 | 44.90737 | -63.54426 | 939 ft | 79 kts | 128° |
| 2026-04-28 01:36 | 44.90390 | -63.53791 | 784 ft | 82 kts | 130° |
| 2026-04-28 01:36 | 44.90086 | -63.53151 | 686 ft | 73 kts | 128° |
| 2026-04-28 01:37 | 44.89799 | -63.52582 | 589 ft | 73 kts | 128° |
| 2026-04-28 01:37 | 44.89549 | -63.52086 | 535 ft | 52 kts | 128° |
| 2026-04-28 01:37 | 44.89342 | -63.51679 | 471 ft | 48 kts | 129° |
| 2026-04-28 01:37 | 44.89191 | -63.51382 | 451 ft | 41 kts | 126° |
| 2026-04-28 01:38 | 44.88959 | -63.50911 | 529 ft | 65 kts | 128° |
| 2026-04-28 01:38 | 44.88690 | -63.50371 | 698 ft | 67 kts | 127° |
| 2026-04-28 01:38 | 44.88503 | -63.49726 | 842 ft | 74 kts | 97° |
| 2026-04-28 01:38 | 44.88714 | -63.49051 | 1000 ft | 84 kts | 46° |
| 2026-04-28 01:39 | 44.89233 | -63.48607 | 1106 ft | 89 kts | 33° |
| 2026-04-28 01:39 | 44.89795 | -63.48219 | 1233 ft | 91 kts | 31° |
| 2026-04-28 01:39 | 44.90419 | -63.48014 | 1351 ft | 96 kts | 1° |
| 2026-04-28 01:39 | 44.91041 | -63.48388 | 1412 ft | 103 kts | 314° |
| 2026-04-28 01:40 | 44.91475 | -63.49193 | 1452 ft | 104 kts | 301° |
| 2026-04-28 01:40 | 44.91869 | -63.50045 | 1480 ft | 105 kts | 299° |
| 2026-04-28 01:40 | 44.92233 | -63.50916 | 1542 ft | 103 kts | 297° |
| 2026-04-28 01:40 | 44.92590 | -63.51785 | 1571 ft | 103 kts | 296° |
| 2026-04-28 01:41 | 44.92956 | -63.52674 | 1588 ft | 105 kts | 298° |
| 2026-04-28 01:41 | 44.93334 | -63.53550 | 1622 ft | 105 kts | 298° |
| 2026-04-28 01:41 | 44.93581 | -63.54478 | 1666 ft | 100 kts | 263° |
| 2026-04-28 01:41 | 44.93260 | -63.55290 | 1623 ft | 96 kts | 214° |
| 2026-04-28 01:42 | 44.92744 | -63.55870 | 1652 ft | 93 kts | 210° |
| 2026-04-28 01:42 | 44.92216 | -63.56382 | 1673 ft | 91 kts | 201° |
| 2026-04-28 01:42 | 44.91637 | -63.56455 | 1702 ft | 84 kts | 154° |
| 2026-04-28 01:42 | 44.91275 | -63.55800 | 1551 ft | 90 kts | 117° |
| 2026-04-28 01:43 | 44.91018 | -63.55065 | 1250 ft | 76 kts | 123° |
| 2026-04-28 01:43 | 44.90746 | -63.54458 | 992 ft | 75 kts | 128° |
| 2026-04-28 01:43 | 44.90418 | -63.53824 | 854 ft | 79 kts | 128° |
| 2026-04-28 01:43 | 44.90112 | -63.53198 | 762 ft | 67 kts | 128° |
| 2026-04-28 01:44 | 44.89853 | -63.52673 | 680 ft | 65 kts | 129° |
| 2026-04-28 01:44 | 44.89588 | -63.52157 | 581 ft | 63 kts | 128° |
| 2026-04-28 01:44 | 44.89350 | -63.51692 | 486 ft | 58 kts | 127° |
| 2026-04-28 01:44 | 44.89154 | -63.51303 | 450 ft | 35 kts | 128° |
| 2026-04-28 01:45 | 44.88989 | -63.50975 | 450 ft | 61 kts | 126° |
| 2026-04-28 01:45 | 44.88720 | -63.50426 | 555 ft | 72 kts | 126° |
| 2026-04-28 01:45 | 44.88423 | -63.49830 | 668 ft | 77 kts | 127° |
| 2026-04-28 01:45 | 44.88091 | -63.49206 | 747 ft | 82 kts | 129° |
| 2026-04-28 01:46 | 44.87723 | -63.48562 | 843 ft | 85 kts | 129° |
| 2026-04-28 01:46 | 44.87379 | -63.47905 | 979 ft | 84 kts | 129° |
| 2026-04-28 01:46 | 44.87017 | -63.47268 | 1114 ft | 82 kts | 130° |
| 2026-04-28 01:46 | 44.86690 | -63.46636 | 1309 ft | 77 kts | 119° |
| 2026-04-28 01:47 | 44.86648 | -63.45854 | 1388 ft | 90 kts | 78° |
| 2026-04-28 01:47 | 44.87053 | -63.45163 | 1478 ft | 96 kts | 45° |
| 2026-04-28 01:47 | 44.87677 | -63.44761 | 1530 ft | 105 kts | 10° |
| 2026-04-28 01:47 | 44.88364 | -63.45134 | 1572 ft | 110 kts | 311° |
| 2026-04-28 01:48 | 44.88791 | -63.46033 | 1597 ft | 112 kts | 300° |
| 2026-04-28 01:48 | 44.89230 | -63.46949 | 1588 ft | 115 kts | 303° |
| 2026-04-28 01:48 | 44.89682 | -63.47878 | 1625 ft | 111 kts | 301° |
| 2026-04-28 01:48 | 44.90089 | -63.48792 | 1693 ft | 110 kts | 298° |
| 2026-04-28 01:49 | 44.90468 | -63.49729 | 1743 ft | 108 kts | 299° |
| 2026-04-28 01:49 | 44.90886 | -63.50623 | 1765 ft | 112 kts | 300° |
| 2026-04-28 01:49 | 44.91260 | -63.51577 | 1807 ft | 109 kts | 292° |
| 2026-04-28 01:49 | 44.91510 | -63.52580 | 1826 ft | 108 kts | 273° |
| 2026-04-28 01:50 | 44.91667 | -63.53636 | 1835 ft | 109 kts | 276° |
| 2026-04-28 01:50 | 44.91699 | -63.54682 | 1829 ft | 108 kts | 250° |
| 2026-04-28 01:50 | 44.91226 | -63.55374 | 1610 ft | 91 kts | 182° |
| 2026-04-28 01:50 | 44.90793 | -63.54972 | 1216 ft | 84 kts | 114° |
| 2026-04-28 01:51 | 44.90645 | -63.54164 | 882 ft | 73 kts | 118° |
| 2026-04-28 01:51 | 44.90384 | -63.53730 | 787 ft | 59 kts | 133° |
| 2026-04-28 01:51 | 44.90140 | -63.53244 | 728 ft | 64 kts | 126° |
| 2026-04-28 01:51 | 44.89881 | -63.52737 | 667 ft | 63 kts | 127° |
| 2026-04-28 01:52 | 44.89624 | -63.52226 | 599 ft | 65 kts | 128° |
| 2026-04-28 01:52 | 44.89372 | -63.51734 | 482 ft | 53 kts | 130° |
| 2026-04-28 01:52 | 44.89206 | -63.51410 | 452 ft | 34 kts | 125° |
| 2026-04-28 01:52 | 44.88990 | -63.50974 | 522 ft | 64 kts | 128° |
| 2026-04-28 01:53 | 44.88732 | -63.50436 | 684 ft | 68 kts | 125° |
| 2026-04-28 01:53 | 44.88464 | -63.49863 | 839 ft | 72 kts | 126° |
| 2026-04-28 01:53 | 44.88173 | -63.49264 | 972 ft | 78 kts | 126° |
| 2026-04-28 01:53 | 44.87864 | -63.48628 | 1141 ft | 77 kts | 124° |
| 2026-04-28 01:54 | 44.87560 | -63.48036 | 1383 ft | 74 kts | 128° |
| 2026-04-28 01:54 | 44.87258 | -63.47453 | 1557 ft | 75 kts | 128° |
| 2026-04-28 01:54 | 44.86962 | -63.46830 | 1686 ft | 78 kts | 117° |
| 2026-04-28 01:54 | 44.86968 | -63.46046 | 1802 ft | 88 kts | 72° |
| 2026-04-28 01:55 | 44.87461 | -63.45433 | 1822 ft | 104 kts | 34° |
| 2026-04-28 01:55 | 44.88120 | -63.44990 | 1845 ft | 107 kts | 27° |
| 2026-04-28 01:55 | 44.88817 | -63.44655 | 1935 ft | 104 kts | 16° |
| 2026-04-28 01:55 | 44.89507 | -63.44870 | 2048 ft | 107 kts | 320° |
| 2026-04-28 01:56 | 44.89960 | -63.45727 | 2028 ft | 112 kts | 299° |
| 2026-04-28 01:56 | 44.90378 | -63.46656 | 2055 ft | 112 kts | 299° |
| 2026-04-28 01:56 | 44.90796 | -63.47584 | 2067 ft | 112 kts | 299° |
| 2026-04-28 01:56 | 44.91217 | -63.48513 | 2089 ft | 112 kts | 300° |
| 2026-04-28 01:57 | 44.91638 | -63.49441 | 2110 ft | 112 kts | 299° |
| 2026-04-28 01:57 | 44.92060 | -63.50370 | 2114 ft | 113 kts | 298° |
| 2026-04-28 01:57 | 44.92462 | -63.51285 | 2213 ft | 106 kts | 298° |
| 2026-04-28 01:57 | 44.92837 | -63.52221 | 2166 ft | 114 kts | 294° |
| 2026-04-28 01:58 | 44.93214 | -63.53182 | 2206 ft | 111 kts | 297° |
| 2026-04-28 01:58 | 44.93624 | -63.54120 | 2229 ft | 111 kts | 304° |
| 2026-04-28 01:58 | 44.94052 | -63.54966 | 2349 ft | 104 kts | 294° |
| 2026-04-28 01:58 | 44.93707 | -63.55701 | 2141 ft | 107 kts | 204° |
| 2026-04-28 01:59 | 44.93004 | -63.56039 | 1813 ft | 113 kts | 203° |
| 2026-04-28 01:59 | 44.92299 | -63.56456 | 1582 ft | 105 kts | 204° |
| 2026-04-28 01:59 | 44.91726 | -63.56812 | 1340 ft | 89 kts | 209° |
| 2026-04-28 01:59 | 44.91152 | -63.57279 | 1222 ft | 88 kts | 198° |
| 2026-04-28 02:00 | 44.90768 | -63.57857 | 1092 ft | 107 kts | 340° |
| 2026-04-28 02:00 | 44.91106 | -63.57112 | 991 ft | 101 kts | 76° |
| 2026-04-28 02:00 | 44.91289 | -63.56173 | 1051 ft | 97 kts | 81° |
| 2026-04-28 02:00 | 44.91244 | -63.55310 | 1012 ft | 83 kts | 133° |
| 2026-04-28 02:01 | 44.90864 | -63.54800 | 932 ft | 68 kts | 136° |
| 2026-04-28 02:01 | 44.90582 | -63.54193 | 806 ft | 78 kts | 120° |
| 2026-04-28 02:01 | 44.90398 | -63.53752 | 769 ft | 80 kts | 127° |
| 2026-04-28 02:01 | 44.90069 | -63.53130 | 689 ft | 76 kts | 131° |
| 2026-04-28 02:02 | 44.89807 | -63.52563 | 619 ft | 55 kts | 129° |
| 2026-04-28 02:02 | 44.89527 | -63.52046 | 523 ft | 84 kts | 128° |
| 2026-04-28 02:02 | 44.89185 | -63.51365 | 455 ft | 74 kts | 126° |
| 2026-04-28 02:02 | 44.88937 | -63.50871 | 450 ft | 53 kts | 124° |
| 2026-04-28 02:03 | 44.88665 | -63.50323 | 519 ft | 76 kts | 127° |
| 2026-04-28 02:03 | 44.88355 | -63.49698 | 642 ft | 83 kts | 126° |
| 2026-04-28 02:03 | 44.88012 | -63.48995 | 718 ft | 85 kts | 126° |
| 2026-04-28 02:03 | 44.87980 | -63.48274 | 956 ft | 85 kts | 59° |
| 2026-04-28 02:04 | 44.88575 | -63.48147 | 980 ft | 100 kts | 327° |
| 2026-04-28 02:04 | 44.89025 | -63.48902 | 992 ft | 105 kts | 306° |
| 2026-04-28 02:04 | 44.89468 | -63.49744 | 973 ft | 108 kts | 305° |
| 2026-04-28 02:04 | 44.89905 | -63.50538 | 921 ft | 92 kts | 308° |
| 2026-04-28 02:05 | 44.90266 | -63.51206 | 758 ft | 81 kts | 290° |
| 2026-04-28 02:05 | 44.90138 | -63.51739 | 677 ft | 58 kts | 176° |
| 2026-04-28 02:05 | 44.89763 | -63.51644 | 553 ft | 52 kts | 168° |
| 2026-04-28 02:05 | 44.89408 | -63.51614 | 490 ft | 46 kts | 166° |
| 2026-04-28 02:06 | 44.89169 | -63.51333 | 453 ft | 39 kts | 124° |
| 2026-04-28 02:06 | 44.89064 | -63.51123 | 449 ft | 23 kts | 127° |
| 2026-04-28 02:06 | 44.88958 | -63.50914 | 450 ft | 25 kts | 126° |
| 2026-04-28 02:06 | 44.88874 | -63.50778 | 451 ft | 12 kts | 184° |
| 2026-04-28 02:07 | 44.88815 | -63.50836 | 451 ft | 8 kts | 216° |
| 2026-04-28 02:07 | 44.88804 | -63.50847 | 451 ft | 0 kts | 217° |
| 2026-04-28 02:08 | 44.88774 | -63.50877 | 451 ft | 10 kts | 218° |
| 2026-04-28 02:08 | 44.88723 | -63.50951 | 451 ft | 11 kts | 258° |
| 2026-04-28 02:08 | 44.88706 | -63.51086 | 451 ft | 14 kts | 260° |
| 2026-04-28 02:08 | 44.88690 | -63.51210 | 451 ft | 9 kts | 264° |
| 2026-04-28 02:09 | 44.88637 | -63.51250 | 451 ft | 11 kts | 168° |
| 2026-04-28 02:09 | 44.88556 | -63.51229 | 451 ft | 14 kts | 171° |
| 2026-04-28 02:09 | 44.88472 | -63.51209 | 452 ft | 15 kts | 172° |
| 2026-04-28 02:09 | 44.88395 | -63.51241 | 452 ft | 14 kts | 216° |
| 2026-04-28 02:10 | 44.88323 | -63.51320 | 452 ft | 14 kts | 213° |
| 2026-04-28 02:10 | 44.88238 | -63.51405 | 452 ft | 16 kts | 214° |
| 2026-04-28 02:10 | 44.88141 | -63.51496 | 453 ft | 18 kts | 216° |
| 2026-04-28 02:10 | 44.88040 | -63.51597 | 453 ft | 17 kts | 213° |
| 2026-04-28 02:11 | 44.87942 | -63.51693 | 453 ft | 18 kts | 215° |
| 2026-04-28 02:11 | 44.87837 | -63.51800 | 453 ft | 20 kts | 215° |
| 2026-04-28 02:11 | 44.87725 | -63.51911 | 454 ft | 20 kts | 212° |
| 2026-04-28 02:11 | 44.87621 | -63.52014 | 454 ft | 20 kts | 211° |
| 2026-04-28 02:12 | 44.87528 | -63.52104 | 454 ft | 10 kts | 228° |
| 2026-04-28 02:12 | 44.87559 | -63.52179 | 454 ft | 7 kts | 354° |
| 2026-04-28 02:12 | 44.87578 | -63.52182 | 454 ft | 0 kts | 192° |